Airfield :
LOGIN :

Register | Disclaimer

   EN    FR    IT 

 










Legend :    VFR   Marginal VFR   IFR   Intensive IFR   Very Intensive IFR
Visi :
Ceiling :
>= 8 km
>= 3000ft
5 to 8 km
1000 to 3000 ft
1500m to 5 km
500 to 1000 ft
800 to 1500m
200 to 500 ft
< 800m
< 200 ft
Symbols :   Thunderstorms  Fog  Heavy snow  Heavy precipitations  Wind > 20 kt
SIGMETs :     Misc.  Thunderstorms  Icing  Turbulence  Mountain Waves  Volcanic Ashes






- Airport Elevation : 19 ft
- IATA code : LCY


EGLC - London City

CURRENT METAR :
  • 270820Z AUTO 05004KT 330V100 9999 -RA BKN006/// BKN010/// OVC027/// //////TCU 03/02 Q0995

EXPIRED METARs :
  • 270750Z AUTO 05006KT 010V080 9000 -RA BKN006/// OVC013/// //////TCU 04/02 Q0995
  • 270720Z AUTO 07007KT 9999 -RA SCT006/// BKN010/// OVC032/// //////TCU 04/02 Q0995
  • 270650Z AUTO 09009KT 9999 -RA BKN009/// BKN013/// OVC026/// //////TCU 04/02 Q0995
  • 270620Z AUTO 10008KT 9000 -RA BKN015/// OVC029/// //////TCU 04/02 Q0996 RESN RERA
  • 270550Z AUTO 10007KT 9000 -RA BKN019/// OVC029/// //////TCU 04/02 Q0997

TAF TAF EGLC
Valid from the 27 at 09:00 until the 27 at 18:00 UTC


270806Z 2709/2718 01007KT 9999 -RA SCT025
TEMPO 2709/2712 8000 BKN014
TEMPO 2709/2710 3000 RADZ BKN006
PROB30 27PR09/2710 BKN004
BECMG 2710/2713 32015G25KT
PROB30
TEMPO 2713/2718 8000 SHRA
ATIS : +44 20 7646 0224



MET'MAP, your aeronautical weather chart ! - Copyright ORBIFLY December 2007 - Disclaimer

ORBIFLY MET'MAP TEAM :

Programming & Development : Alexandra Zaïnal
Concept & original design : Baudouin d'Aumeries
Assistance for programming : Marc-Olivier Méhu
Technical & hardware support : Manuel Goepfert

Contact : metmap@orbifly.com




SOURCES & CREDITS :

   NOAA